sensor_id;sensor_type;location;lat;lon;timestamp;pressure;altitude;pressure_sealevel;temperature;humidity
42001;BME280;27689;48.390;10.856;2022-10-22T00:02:23;95899.25;;;13.92;100.00
42001;BME280;27689;48.390;10.856;2022-10-22T00:05:07;95905.50;;;13.91;100.00
42001;BME280;27689;48.390;10.856;2022-10-22T00:07:51;95902.88;;;13.91;100.00
42001;BME280;27689;48.390;10.856;2022-10-22T00:10:36;95911.44;;;13.93;100.00
42001;BME280;27689;48.390;10.856;2022-10-22T00:13:20;95909.78;;;13.92;100.00
42001;BME280;27689;48.390;10.856;2022-10-22T00:16:04;95908.16;;;13.91;100.00
42001;BME280;27689;48.390;10.856;2022-10-22T00:18:48;95922.00;;;13.85;100.00
42001;BME280;27689;48.390;10.856;2022-10-22T00:21:32;95922.47;;;13.88;100.00
42001;BME280;27689;48.390;10.856;2022-10-22T00:24:16;95924.78;;;13.91;100.00
42001;BME280;27689;48.390;10.856;2022-10-22T00:27:00;95920.31;;;13.92;100.00
42001;BME280;27689;48.390;10.856;2022-10-22T00:29:44;95928.88;;;13.94;100.00
42001;BME280;27689;48.390;10.856;2022-10-22T00:32:28;95930.47;;;14.03;100.00
42001;BME280;27689;48.390;10.856;2022-10-22T00:35:11;95940.34;;;14.01;100.00
42001;BME280;27689;48.390;10.856;2022-10-22T00:37:55;95945.63;;;14.01;100.00
42001;BME280;27689;48.390;10.856;2022-10-22T00:40:39;95942.34;;;13.99;100.00
42001;BME280;27689;48.390;10.856;2022-10-22T00:43:23;95942.34;;;13.99;100.00
42001;BME280;27689;48.390;10.856;2022-10-22T00:46:07;95939.69;;;13.99;100.00
42001;BME280;27689;48.390;10.856;2022-10-22T00:48:51;95926.53;;;13.99;100.00
42001;BME280;27689;48.390;10.856;2022-10-22T00:51:35;95923.91;;;13.99;100.00
42001;BME280;27689;48.390;10.856;2022-10-22T00:54:19;95922.09;;;13.99;100.00
42001;BME280;27689;48.390;10.856;2022-10-22T00:57:03;95927.34;;;13.99;100.00
42001;BME280;27689;48.390;10.856;2022-10-22T00:59:47;95923.25;;;13.97;100.00
42001;BME280;27689;48.390;10.856;2022-10-22T01:02:31;95941.50;;;13.98;100.00
42001;BME280;27689;48.390;10.856;2022-10-22T01:05:16;95949.59;;;13.97;100.00
42001;BME280;27689;48.390;10.856;2022-10-22T01:08:00;95948.13;;;13.94;100.00
42001;BME280;27689;48.390;10.856;2022-10-22T01:10:56;95952.38;;;13.95;100.00
42001;BME280;27689;48.390;10.856;2022-10-22T01:16:35;95948.75;;;13.96;100.00
42001;BME280;27689;48.390;10.856;2022-10-22T01:22:17;95931.31;;;13.95;100.00
42001;BME280;27689;48.390;10.856;2022-10-22T01:28:10;95926.25;;;13.94;100.00
42001;BME280;27689;48.390;10.856;2022-10-22T01:31:00;95921.97;;;13.93;100.00
42001;BME280;27689;48.390;10.856;2022-10-22T01:33:45;95914.25;;;13.91;100.00
42001;BME280;27689;48.390;10.856;2022-10-22T01:36:30;95924.28;;;13.88;100.00
42001;BME280;27689;48.390;10.856;2022-10-22T01:39:15;95937.63;;;13.86;100.00
42001;BME280;27689;48.390;10.856;2022-10-22T01:41:59;95934.31;;;13.92;100.00
42001;BME280;27689;48.390;10.856;2022-10-22T01:44:43;95943.03;;;13.93;100.00
42001;BME280;27689;48.390;10.856;2022-10-22T01:47:47;95952.69;;;14.00;100.00
42001;BME280;27689;48.390;10.856;2022-10-22T01:50:41;95954.31;;;14.09;100.00
42001;BME280;27689;48.390;10.856;2022-10-22T02:02:47;95964.56;;;13.96;100.00
42001;BME280;27689;48.390;10.856;2022-10-22T02:05:42;95960.13;;;13.97;100.00
42001;BME280;27689;48.390;10.856;2022-10-22T02:08:30;95968.22;;;13.87;100.00
42001;BME280;27689;48.390;10.856;2022-10-22T02:11:14;95974.53;;;13.78;100.00
42001;BME280;27689;48.390;10.856;2022-10-22T02:14:00;95972.56;;;13.72;100.00
42001;BME280;27689;48.390;10.856;2022-10-22T02:16:46;95975.22;;;13.64;100.00
42001;BME280;27689;48.390;10.856;2022-10-22T02:19:36;95979.19;;;13.60;100.00
42001;BME280;27689;48.390;10.856;2022-10-22T02:22:21;95981.13;;;13.66;100.00
42001;BME280;27689;48.390;10.856;2022-10-22T02:25:06;95973.09;;;13.59;100.00
42001;BME280;27689;48.390;10.856;2022-10-22T02:27:52;95971.28;;;13.52;100.00
42001;BME280;27689;48.390;10.856;2022-10-22T02:30:41;95964.09;;;13.46;100.00
42001;BME280;27689;48.390;10.856;2022-10-22T02:33:27;95975.44;;;13.38;100.00
42001;BME280;27689;48.390;10.856;2022-10-22T02:36:14;95971.03;;;13.30;100.00
42001;BME280;27689;48.390;10.856;2022-10-22T02:38:58;95961.16;;;13.32;100.00
42001;BME280;27689;48.390;10.856;2022-10-22T02:41:42;95957.06;;;13.30;100.00
42001;BME280;27689;48.390;10.856;2022-10-22T02:44:26;95950.47;;;13.26;100.00
42001;BME280;27689;48.390;10.856;2022-10-22T02:47:10;95948.69;;;13.18;100.00
42001;BME280;27689;48.390;10.856;2022-10-22T02:49:54;95961.63;;;13.12;100.00
42001;BME280;27689;48.390;10.856;2022-10-22T02:52:38;95964.59;;;13.08;100.00
42001;BME280;27689;48.390;10.856;2022-10-22T02:55:22;95972.31;;;13.10;100.00
42001;BME280;27689;48.390;10.856;2022-10-22T02:58:05;95975.28;;;13.07;100.00
42001;BME280;27689;48.390;10.856;2022-10-22T03:00:49;95964.94;;;13.05;100.00
42001;BME280;27689;48.390;10.856;2022-10-22T03:03:33;95964.59;;;13.08;100.00
42001;BME280;27689;48.390;10.856;2022-10-22T03:06:17;95969.53;;;13.12;100.00
42001;BME280;27689;48.390;10.856;2022-10-22T03:09:01;95990.72;;;13.10;100.00
42001;BME280;27689;48.390;10.856;2022-10-22T03:11:45;95993.22;;;13.03;100.00
42001;BME280;27689;48.390;10.856;2022-10-22T03:14:29;95991.56;;;13.02;100.00
42001;BME280;27689;48.390;10.856;2022-10-22T03:17:13;95990.91;;;13.00;100.00
42001;BME280;27689;48.390;10.856;2022-10-22T03:19:57;95987.94;;;12.95;100.00
42001;BME280;27689;48.390;10.856;2022-10-22T03:22:41;95999.44;;;12.94;100.00
42001;BME280;27689;48.390;10.856;2022-10-22T03:25:25;95992.69;;;12.92;100.00
42001;BME280;27689;48.390;10.856;2022-10-22T03:28:10;96000.44;;;12.93;100.00
42001;BME280;27689;48.390;10.856;2022-10-22T03:30:54;96005.03;;;12.91;100.00
42001;BME280;27689;48.390;10.856;2022-10-22T03:33:38;96003.72;;;12.87;100.00
42001;BME280;27689;48.390;10.856;2022-10-22T03:36:22;96002.09;;;12.86;100.00
42001;BME280;27689;48.390;10.856;2022-10-22T03:39:06;96000.13;;;12.88;100.00
42001;BME280;27689;48.390;10.856;2022-10-22T03:41:50;96009.31;;;12.84;100.00
42001;BME280;27689;48.390;10.856;2022-10-22T03:44:35;95990.41;;;12.81;100.00
42001;BME280;27689;48.390;10.856;2022-10-22T03:47:19;95993.53;;;12.84;100.00
42001;BME280;27689;48.390;10.856;2022-10-22T03:50:06;95993.34;;;12.78;100.00
42001;BME280;27689;48.390;10.856;2022-10-22T03:52:51;95994.53;;;12.75;100.00
42001;BME280;27689;48.390;10.856;2022-10-22T03:55:36;95996.50;;;12.73;100.00
42001;BME280;27689;48.390;10.856;2022-10-22T03:58:21;95994.03;;;12.71;100.00
42001;BME280;27689;48.390;10.856;2022-10-22T04:01:06;95987.44;;;12.67;100.00
42001;BME280;27689;48.390;10.856;2022-10-22T04:03:50;96009.28;;;12.68;100.00
42001;BME280;27689;48.390;10.856;2022-10-22T04:06:34;96006.16;;;12.64;100.00
42001;BME280;27689;48.390;10.856;2022-10-22T04:09:18;96021.44;;;12.69;100.00
42001;BME280;27689;48.390;10.856;2022-10-22T04:12:02;96022.44;;;12.68;100.00
42001;BME280;27689;48.390;10.856;2022-10-22T04:14:48;96035.41;;;12.69;100.00
42001;BME280;27689;48.390;10.856;2022-10-22T04:17:35;96033.78;;;12.68;100.00
42001;BME280;27689;48.390;10.856;2022-10-22T04:20:19;96063.16;;;12.64;100.00
42001;BME280;27689;48.390;10.856;2022-10-22T04:23:03;96054.44;;;12.63;100.00
42001;BME280;27689;48.390;10.856;2022-10-22T04:25:47;96056.75;;;12.58;100.00
42001;BME280;27689;48.390;10.856;2022-10-22T04:28:32;96058.03;;;12.54;100.00
42001;BME280;27689;48.390;10.856;2022-10-22T04:31:17;96058.25;;;12.61;100.00
42001;BME280;27689;48.390;10.856;2022-10-22T04:34:01;96063.31;;;12.62;100.00
42001;BME280;27689;48.390;10.856;2022-10-22T04:36:45;96064.47;;;12.60;100.00
42001;BME280;27689;48.390;10.856;2022-10-22T04:39:29;96066.28;;;12.59;100.00
42001;BME280;27689;48.390;10.856;2022-10-22T04:42:13;96060.38;;;12.57;100.00
42001;BME280;27689;48.390;10.856;2022-10-22T04:44:57;96055.25;;;12.56;100.00
42001;BME280;27689;48.390;10.856;2022-10-22T04:47:41;96051.00;;;12.55;100.00
42001;BME280;27689;48.390;10.856;2022-10-22T04:50:25;96058.72;;;12.56;100.00
42001;BME280;27689;48.390;10.856;2022-10-22T04:53:09;96054.91;;;12.51;100.00
42001;BME280;27689;48.390;10.856;2022-10-22T04:55:53;96044.56;;;12.49;100.00
42001;BME280;27689;48.390;10.856;2022-10-22T04:58:37;96042.44;;;12.53;100.00
42001;BME280;27689;48.390;10.856;2022-10-22T05:01:22;96044.56;;;12.49;100.00
42001;BME280;27689;48.390;10.856;2022-10-22T05:04:07;96047.84;;;12.43;100.00
42001;BME280;27689;48.390;10.856;2022-10-22T05:06:51;96033.88;;;12.43;100.00
42001;BME280;27689;48.390;10.856;2022-10-22T05:09:35;96039.75;;;12.36;100.00
42001;BME280;27689;48.390;10.856;2022-10-22T05:12:19;96035.16;;;12.39;100.00
42001;BME280;27689;48.390;10.856;2022-10-22T05:15:03;96032.19;;;12.33;100.00
42001;BME280;27689;48.390;10.856;2022-10-22T05:17:47;96018.41;;;12.31;100.00
42001;BME280;27689;48.390;10.856;2022-10-22T05:20:31;96010.69;;;12.30;100.00
42001;BME280;27689;48.390;10.856;2022-10-22T05:23:15;96006.75;;;12.26;100.00
42001;BME280;27689;48.390;10.856;2022-10-22T05:26:06;96001.63;;;12.24;100.00
42001;BME280;27689;48.390;10.856;2022-10-22T05:28:50;95994.22;;;12.20;100.00
42001;BME280;27689;48.390;10.856;2022-10-22T05:31:35;95987.84;;;12.14;100.00
42001;BME280;27689;48.390;10.856;2022-10-22T05:34:19;95988.97;;;12.12;100.00
42001;BME280;27689;48.390;10.856;2022-10-22T05:37:03;96001.59;;;12.08;100.00
42001;BME280;27689;48.390;10.856;2022-10-22T05:39:47;96008.78;;;12.06;100.00
42001;BME280;27689;48.390;10.856;2022-10-22T05:42:31;95984.84;;;12.01;100.00
42001;BME280;27689;48.390;10.856;2022-10-22T05:45:15;95997.97;;;12.01;100.00
42001;BME280;27689;48.390;10.856;2022-10-22T05:47:59;96008.13;;;12.04;100.00
42001;BME280;27689;48.390;10.856;2022-10-22T05:50:43;96007.66;;;12.09;100.00
42001;BME280;27689;48.390;10.856;2022-10-22T05:53:29;96013.41;;;12.12;100.00
42001;BME280;27689;48.390;10.856;2022-10-22T05:56:14;96041.66;;;12.18;100.00
42001;BME280;27689;48.390;10.856;2022-10-22T05:58:58;96056.94;;;12.23;100.00
42001;BME280;27689;48.390;10.856;2022-10-22T06:01:42;96052.22;;;12.26;100.00
42001;BME280;27689;48.390;10.856;2022-10-22T06:04:26;96063.22;;;12.30;100.00
42001;BME280;27689;48.390;10.856;2022-10-22T06:07:10;96063.06;;;12.31;100.00
42001;BME280;27689;48.390;10.856;2022-10-22T06:09:56;96076.22;;;12.31;100.00
42001;BME280;27689;48.390;10.856;2022-10-22T06:12:41;96090.63;;;12.27;100.00
42001;BME280;27689;48.390;10.856;2022-10-22T06:15:25;96078.47;;;12.26;100.00
42001;BME280;27689;48.390;10.856;2022-10-22T06:18:09;96091.25;;;12.21;100.00
42001;BME280;27689;48.390;10.856;2022-10-22T06:20:54;96095.22;;;12.25;100.00
42001;BME280;27689;48.390;10.856;2022-10-22T06:23:38;96091.78;;;12.25;100.00
42001;BME280;27689;48.390;10.856;2022-10-22T06:26:23;96100.84;;;12.30;100.00
42001;BME280;27689;48.390;10.856;2022-10-22T06:29:07;96111.34;;;12.30;100.00
42001;BME280;27689;48.390;10.856;2022-10-22T06:31:51;96104.63;;;12.36;100.00
42001;BME280;27689;48.390;10.856;2022-10-22T06:34:34;96108.88;;;12.37;100.00
42001;BME280;27689;48.390;10.856;2022-10-22T06:37:18;96117.81;;;12.44;100.00
42001;BME280;27689;48.390;10.856;2022-10-22T06:40:03;96116.63;;;12.47;100.00
42001;BME280;27689;48.390;10.856;2022-10-22T06:42:47;96127.34;;;12.45;100.00
42001;BME280;27689;48.390;10.856;2022-10-22T06:45:30;96125.03;;;12.50;100.00
42001;BME280;27689;48.390;10.856;2022-10-22T06:48:15;96131.78;;;12.53;100.00
42001;BME280;27689;48.390;10.856;2022-10-22T06:51:00;96134.56;;;12.51;100.00
42001;BME280;27689;48.390;10.856;2022-10-22T06:53:44;96132.97;;;12.58;100.00
42001;BME280;27689;48.390;10.856;2022-10-22T06:56:28;96145.75;;;12.53;100.00
42001;BME280;27689;48.390;10.856;2022-10-22T06:59:12;96146.22;;;12.49;100.00
42001;BME280;27689;48.390;10.856;2022-10-22T07:01:56;96151.97;;;12.52;100.00
42001;BME280;27689;48.390;10.856;2022-10-22T07:04:40;96168.88;;;12.50;100.00
42001;BME280;27689;48.390;10.856;2022-10-22T07:07:24;96176.31;;;12.54;100.00
42001;BME280;27689;48.390;10.856;2022-10-22T07:10:08;96182.38;;;12.55;100.00
42001;BME280;27689;48.390;10.856;2022-10-22T07:12:52;96181.44;;;12.64;100.00
42001;BME280;27689;48.390;10.856;2022-10-22T07:15:35;96184.44;;;12.77;100.00
42001;BME280;27689;48.390;10.856;2022-10-22T07:18:20;96187.88;;;12.78;100.00
42001;BME280;27689;48.390;10.856;2022-10-22T07:21:04;96188.25;;;12.83;100.00
42001;BME280;27689;48.390;10.856;2022-10-22T07:23:48;96179.53;;;12.82;100.00
42001;BME280;27689;48.390;10.856;2022-10-22T07:26:32;96175.78;;;12.93;100.00
42001;BME280;27689;48.390;10.856;2022-10-22T07:29:16;96180.88;;;12.94;100.00
42001;BME280;27689;48.390;10.856;2022-10-22T07:32:00;96186.66;;;12.98;100.00
42001;BME280;27689;48.390;10.856;2022-10-22T07:34:43;96186.50;;;12.99;100.00
42001;BME280;27689;48.390;10.856;2022-10-22T07:37:27;96184.22;;;13.04;100.00
42001;BME280;27689;48.390;10.856;2022-10-22T07:40:11;96196.22;;;13.07;100.00
42001;BME280;27689;48.390;10.856;2022-10-22T07:42:55;96210.34;;;13.06;100.00
42001;BME280;27689;48.390;10.856;2022-10-22T07:45:39;96210.84;;;13.10;100.00
42001;BME280;27689;48.390;10.856;2022-10-22T07:48:24;96224.81;;;13.10;100.00
42001;BME280;27689;48.390;10.856;2022-10-22T07:51:08;96225.34;;;13.14;100.00
42001;BME280;27689;48.390;10.856;2022-10-22T07:53:51;96223.03;;;13.11;100.00
42001;BME280;27689;48.390;10.856;2022-10-22T07:56:35;96225.81;;;13.09;100.00
42001;BME280;27689;48.390;10.856;2022-10-22T07:59:19;96223.84;;;13.11;100.00
42001;BME280;27689;48.390;10.856;2022-10-22T08:02:03;96233.38;;;13.12;100.00
42001;BME280;27689;48.390;10.856;2022-10-22T08:04:47;96227.03;;;13.15;100.00
42001;BME280;27689;48.390;10.856;2022-10-22T08:07:31;96233.63;;;13.19;100.00
42001;BME280;27689;48.390;10.856;2022-10-22T08:10:15;96239.69;;;13.19;100.00
42001;BME280;27689;48.390;10.856;2022-10-22T08:12:59;96245.97;;;13.26;100.00
42001;BME280;27689;48.390;10.856;2022-10-22T08:15:43;96253.88;;;13.34;100.00
42001;BME280;27689;48.390;10.856;2022-10-22T08:18:27;96252.56;;;13.30;100.00
42001;BME280;27689;48.390;10.856;2022-10-22T08:21:12;96252.09;;;13.35;100.00
42001;BME280;27689;48.390;10.856;2022-10-22T08:23:56;96266.38;;;13.40;100.00
42001;BME280;27689;48.390;10.856;2022-10-22T08:26:40;96262.31;;;13.46;100.00
42001;BME280;27689;48.390;10.856;2022-10-22T08:29:24;96252.91;;;13.44;100.00
42001;BME280;27689;48.390;10.856;2022-10-22T08:32:09;96246.81;;;13.43;100.00
42001;BME280;27689;48.390;10.856;2022-10-22T08:34:53;96255.91;;;13.49;100.00
42001;BME280;27689;48.390;10.856;2022-10-22T08:37:37;96267.41;;;13.56;100.00
42001;BME280;27689;48.390;10.856;2022-10-22T08:40:26;96267.78;;;13.61;100.00
42001;BME280;27689;48.390;10.856;2022-10-22T08:48:48;96280.78;;;13.70;100.00
42001;BME280;27689;48.390;10.856;2022-10-22T08:51:34;96276.19;;;13.72;100.00
42001;BME280;27689;48.390;10.856;2022-10-22T08:54:27;96276.00;;;13.74;100.00
42001;BME280;27689;48.390;10.856;2022-10-22T09:02:56;96281.13;;;13.84;100.00
42001;BME280;27689;48.390;10.856;2022-10-22T09:08:46;96283.78;;;13.92;100.00
42001;BME280;27689;48.390;10.856;2022-10-22T09:11:34;96291.84;;;13.98;100.00
42001;BME280;27689;48.390;10.856;2022-10-22T09:14:19;96293.00;;;14.04;100.00
42001;BME280;27689;48.390;10.856;2022-10-22T09:20:15;96299.25;;;14.11;100.00
42001;BME280;27689;48.390;10.856;2022-10-22T09:26:03;96281.97;;;14.17;100.00
42001;BME280;27689;48.390;10.856;2022-10-22T09:28:54;96285.09;;;14.28;100.00
42001;BME280;27689;48.390;10.856;2022-10-22T09:31:42;96290.53;;;14.27;100.00
42001;BME280;27689;48.390;10.856;2022-10-22T09:34:25;96289.06;;;14.32;100.00
42001;BME280;27689;48.390;10.856;2022-10-22T09:37:10;96296.81;;;14.42;100.00
42001;BME280;27689;48.390;10.856;2022-10-22T09:39:55;96292.88;;;14.54;100.00
42001;BME280;27689;48.390;10.856;2022-10-22T09:42:39;96300.75;;;14.62;100.00
42001;BME280;27689;48.390;10.856;2022-10-22T09:45:24;96297.47;;;14.68;100.00
42001;BME280;27689;48.390;10.856;2022-10-22T09:48:10;96305.97;;;14.87;100.00
42001;BME280;27689;48.390;10.856;2022-10-22T09:50:57;96311.16;;;15.19;100.00
42001;BME280;27689;48.390;10.856;2022-10-22T09:53:44;96310.44;;;15.33;100.00
42001;BME280;27689;48.390;10.856;2022-10-22T09:56:32;96316.97;;;15.45;100.00
42001;BME280;27689;48.390;10.856;2022-10-22T09:59:18;96314.66;;;15.50;100.00
42001;BME280;27689;48.390;10.856;2022-10-22T10:04:54;96311.53;;;15.55;100.00
42001;BME280;27689;48.390;10.856;2022-10-22T10:07:39;96323.53;;;15.66;100.00
42001;BME280;27689;48.390;10.856;2022-10-22T10:19:09;96317.34;;;15.81;100.00
42001;BME280;27689;48.390;10.856;2022-10-22T10:22:04;96326.84;;;15.91;100.00
42001;BME280;27689;48.390;10.856;2022-10-22T10:27:59;96323.34;;;15.98;100.00
42001;BME280;27689;48.390;10.856;2022-10-22T10:30:50;96320.53;;;16.00;100.00
42001;BME280;27689;48.390;10.856;2022-10-22T10:33:54;96318.94;;;15.91;100.00
42001;BME280;27689;48.390;10.856;2022-10-22T10:43:12;96324.94;;;15.84;100.00
42001;BME280;27689;48.390;10.856;2022-10-22T10:48:21;96317.03;;;15.76;100.00
42001;BME280;27689;48.390;10.856;2022-10-22T11:00:19;96322.69;;;15.96;100.00
42001;BME280;27689;48.390;10.856;2022-10-22T11:06:06;96317.66;;;16.32;100.00
42001;BME280;27689;48.390;10.856;2022-10-22T11:08:59;96324.53;;;16.41;100.00
42001;BME280;27689;48.390;10.856;2022-10-22T11:11:46;96319.75;;;16.37;100.00
42001;BME280;27689;48.390;10.856;2022-10-22T11:14:34;96315.97;;;16.54;100.00
42001;BME280;27689;48.390;10.856;2022-10-22T11:17:21;96311.88;;;16.89;99.92
42001;BME280;27689;48.390;10.856;2022-10-22T11:23:04;96311.69;;;17.49;95.66
42001;BME280;27689;48.390;10.856;2022-10-22T11:25:49;96312.69;;;17.48;95.42
42001;BME280;27689;48.390;10.856;2022-10-22T11:28:35;96310.31;;;17.53;92.71
42001;BME280;27689;48.390;10.856;2022-10-22T11:31:21;96319.91;;;17.40;94.53
42001;BME280;27689;48.390;10.856;2022-10-22T11:34:17;96313.88;;;17.46;94.75
42001;BME280;27689;48.390;10.856;2022-10-22T11:37:02;96309.31;;;17.69;94.96
42001;BME280;27689;48.390;10.856;2022-10-22T11:39:53;96297.84;;;17.83;89.55
42001;BME280;27689;48.390;10.856;2022-10-22T11:42:43;96301.66;;;17.95;87.57
42001;BME280;27689;48.390;10.856;2022-10-22T11:45:30;96302.53;;;18.03;88.49
42001;BME280;27689;48.390;10.856;2022-10-22T11:48:15;96296.50;;;18.09;88.01
42001;BME280;27689;48.390;10.856;2022-10-22T11:51:00;96297.94;;;18.11;88.57
42001;BME280;27689;48.390;10.856;2022-10-22T11:53:44;96290.81;;;18.33;89.40
42001;BME280;27689;48.390;10.856;2022-10-22T11:56:35;96301.41;;;18.33;84.62
42001;BME280;27689;48.390;10.856;2022-10-22T11:59:32;96295.63;;;18.23;83.25
42001;BME280;27689;48.390;10.856;2022-10-22T12:02:24;96288.03;;;18.20;82.57
42001;BME280;27689;48.390;10.856;2022-10-22T12:16:57;96281.91;;;18.19;83.93
42001;BME280;27689;48.390;10.856;2022-10-22T12:22:29;96275.00;;;18.46;80.46
42001;BME280;27689;48.390;10.856;2022-10-22T12:25:15;96271.34;;;18.47;78.48
42001;BME280;27689;48.390;10.856;2022-10-22T12:28:00;96260.38;;;18.57;78.17
42001;BME280;27689;48.390;10.856;2022-10-22T12:30:44;96266.91;;;18.54;75.54
42001;BME280;27689;48.390;10.856;2022-10-22T12:33:28;96274.81;;;18.48;75.71
42001;BME280;27689;48.390;10.856;2022-10-22T12:36:16;96266.16;;;18.60;75.13
42001;BME280;27689;48.390;10.856;2022-10-22T12:39:08;96256.88;;;18.78;75.04
42001;BME280;27689;48.390;10.856;2022-10-22T12:41:52;96253.47;;;18.84;74.55
42001;BME280;27689;48.390;10.856;2022-10-22T12:44:36;96256.19;;;18.97;75.35
42001;BME280;27689;48.390;10.856;2022-10-22T12:47:21;96258.53;;;19.13;72.95
42001;BME280;27689;48.390;10.856;2022-10-22T12:50:05;96265.50;;;19.21;71.81
42001;BME280;27689;48.390;10.856;2022-10-22T12:52:49;96269.44;;;19.25;71.20
42001;BME280;27689;48.390;10.856;2022-10-22T12:55:33;96262.34;;;19.04;70.55
42001;BME280;27689;48.390;10.856;2022-10-22T12:58:18;96258.31;;;19.15;71.68
42001;BME280;27689;48.390;10.856;2022-10-22T13:01:02;96258.75;;;19.12;70.81
42001;BME280;27689;48.390;10.856;2022-10-22T13:03:48;96258.44;;;19.00;71.84
42001;BME280;27689;48.390;10.856;2022-10-22T13:06:35;96257.75;;;18.85;70.69
42001;BME280;27689;48.390;10.856;2022-10-22T13:09:23;96250.00;;;18.83;70.19
42001;BME280;27689;48.390;10.856;2022-10-22T13:12:07;96257.34;;;18.88;70.85
42001;BME280;27689;48.390;10.856;2022-10-22T13:14:53;96256.88;;;18.78;71.02
42001;BME280;27689;48.390;10.856;2022-10-22T13:17:38;96248.56;;;18.87;72.14
42001;BME280;27689;48.390;10.856;2022-10-22T13:20:22;96243.94;;;18.96;71.20
42001;BME280;27689;48.390;10.856;2022-10-22T13:23:16;96243.31;;;19.00;69.51
42001;BME280;27689;48.390;10.856;2022-10-22T13:28:54;96250.25;;;18.95;69.06
42001;BME280;27689;48.390;10.856;2022-10-22T13:31:43;96253.41;;;18.77;68.87
42001;BME280;27689;48.390;10.856;2022-10-22T13:34:31;96262.56;;;18.75;69.99
42001;BME280;27689;48.390;10.856;2022-10-22T13:37:16;96253.97;;;18.73;69.47
42001;BME280;27689;48.390;10.856;2022-10-22T13:40:00;96258.53;;;18.79;69.47
42001;BME280;27689;48.390;10.856;2022-10-22T13:42:44;96254.22;;;18.78;70.44
42001;BME280;27689;48.390;10.856;2022-10-22T13:45:28;96258.91;;;18.76;70.47
42001;BME280;27689;48.390;10.856;2022-10-22T13:48:15;96253.59;;;18.76;71.10
42001;BME280;27689;48.390;10.856;2022-10-22T13:51:01;96258.34;;;18.80;69.21
42001;BME280;27689;48.390;10.856;2022-10-22T13:53:47;96257.06;;;18.70;69.55
42001;BME280;27689;48.390;10.856;2022-10-22T13:56:31;96256.84;;;18.71;69.19
42001;BME280;27689;48.390;10.856;2022-10-22T13:59:15;96264.13;;;18.62;68.34
42001;BME280;27689;48.390;10.856;2022-10-22T14:01:59;96264.84;;;18.56;69.81
42001;BME280;27689;48.390;10.856;2022-10-22T14:04:49;96264.38;;;18.46;69.85
42001;BME280;27689;48.390;10.856;2022-10-22T14:07:33;96265.56;;;18.44;70.54
42001;BME280;27689;48.390;10.856;2022-10-22T14:10:21;96261.47;;;18.41;70.84
42001;BME280;27689;48.390;10.856;2022-10-22T14:13:06;96264.13;;;18.41;71.08
42001;BME280;27689;48.390;10.856;2022-10-22T14:15:50;96268.38;;;18.36;71.67
42001;BME280;27689;48.390;10.856;2022-10-22T14:18:34;96267.13;;;18.31;70.75
42001;BME280;27689;48.390;10.856;2022-10-22T14:21:18;96275.91;;;18.32;72.22
42001;BME280;27689;48.390;10.856;2022-10-22T14:24:02;96271.06;;;18.42;70.60
42001;BME280;27689;48.390;10.856;2022-10-22T14:26:47;96270.22;;;18.35;71.83
42001;BME280;27689;48.390;10.856;2022-10-22T14:29:31;96263.91;;;18.36;70.61
42001;BME280;27689;48.390;10.856;2022-10-22T14:32:16;96261.81;;;18.31;70.58
42001;BME280;27689;48.390;10.856;2022-10-22T14:35:01;96264.03;;;18.28;71.16
42001;BME280;27689;48.390;10.856;2022-10-22T14:37:45;96262.38;;;18.27;70.42
42001;BME280;27689;48.390;10.856;2022-10-22T14:40:29;96272.75;;;18.22;70.40
42001;BME280;27689;48.390;10.856;2022-10-22T14:43:20;96266.38;;;18.16;71.17
42001;BME280;27689;48.390;10.856;2022-10-22T14:46:05;96270.84;;;18.16;70.63
42001;BME280;27689;48.390;10.856;2022-10-22T14:48:48;96275.03;;;18.04;70.18
42001;BME280;27689;48.390;10.856;2022-10-22T14:51:32;96278.69;;;18.03;70.63
42001;BME280;27689;48.390;10.856;2022-10-22T14:54:16;96280.69;;;18.01;71.31
42001;BME280;27689;48.390;10.856;2022-10-22T14:57:01;96279.88;;;18.00;71.60
42001;BME280;27689;48.390;10.856;2022-10-22T14:59:46;96291.06;;;17.95;71.26
42001;BME280;27689;48.390;10.856;2022-10-22T15:02:30;96284.50;;;17.91;72.23
42001;BME280;27689;48.390;10.856;2022-10-22T15:05:14;96281.56;;;17.86;72.57
42001;BME280;27689;48.390;10.856;2022-10-22T15:07:58;96278.28;;;17.84;72.98
42001;BME280;27689;48.390;10.856;2022-10-22T15:10:42;96282.53;;;17.79;73.32
42001;BME280;27689;48.390;10.856;2022-10-22T15:13:27;96283.06;;;17.74;74.03
42001;BME280;27689;48.390;10.856;2022-10-22T15:16:11;96294.78;;;17.80;73.45
42001;BME280;27689;48.390;10.856;2022-10-22T15:18:55;96290.31;;;17.66;73.44
42001;BME280;27689;48.390;10.856;2022-10-22T15:21:39;96292.34;;;17.64;74.49
42001;BME280;27689;48.390;10.856;2022-10-22T15:24:24;96294.50;;;17.60;75.21
42001;BME280;27689;48.390;10.856;2022-10-22T15:27:07;96293.22;;;17.56;75.32
42001;BME280;27689;48.390;10.856;2022-10-22T15:29:51;96300.53;;;17.54;76.11
42001;BME280;27689;48.390;10.856;2022-10-22T15:32:35;96305.59;;;17.49;75.59
42001;BME280;27689;48.390;10.856;2022-10-22T15:35:19;96298.81;;;17.46;75.90
42001;BME280;27689;48.390;10.856;2022-10-22T15:38:03;96306.03;;;17.38;76.03
42001;BME280;27689;48.390;10.856;2022-10-22T15:40:58;96304.78;;;17.34;76.69
42001;BME280;27689;48.390;10.856;2022-10-22T15:43:43;96304.66;;;17.27;76.85
42001;BME280;27689;48.390;10.856;2022-10-22T15:46:27;96311.97;;;17.25;77.37
42001;BME280;27689;48.390;10.856;2022-10-22T15:49:12;96313.72;;;17.18;77.43
42001;BME280;27689;48.390;10.856;2022-10-22T15:51:56;96315.72;;;17.16;77.78